This is the latest recevied weather packets stored in our database for station/object KF4LQQ-13. If no packets are shown the sender has not sent any weather packets the latest 1 day(s).
| Time | Temp. | Humidity | Pressure | Rain* | Wind** | Luminosity | Snow |
|---|---|---|---|---|---|---|---|
| 1778020521 | 27.22° C | - | 1011.8 hPa | 0 mm | 4.47 m/s, 259° | - | - |
| 1778019996 | 27.22° C | - | 1011.8 hPa | 0 mm | 4.47 m/s, 259° | - | - |
| 1778019395 | 27.78° C | - | 1012 hPa | 0 mm | 4.47 m/s, 284° | - | - |
| 1778018799 | 27.78° C | - | 1011.9 hPa | 0 mm | 4.02 m/s, 323° | - | - |
| 1778018795 | 27.22° C | - | 1012 hPa | 0 mm | 4.47 m/s, 246° | - | - |
| 1778018195 | 27.78° C | - | 1011.9 hPa | 0 mm | 4.02 m/s, 323° | - | - |
| 1778017595 | 27.78° C | - | 1011.8 hPa | 0 mm | 4.47 m/s, 264° | - | - |
| 1778016993 | 28.89° C | - | 1011.7 hPa | 0 mm | 4.02 m/s, 285° | - | - |
| 1778016393 | 28.89° C | - | 1011.7 hPa | 0 mm | 4.92 m/s, 297° | - | - |
| 1778015792 | 28.33° C | - | 1011.8 hPa | 0 mm | 5.36 m/s, 283° | - | - |
| 1778015366 | 28.33° C | - | 1011.9 hPa | 0 mm | 4.47 m/s, 283° | - | - |
| 1778015192 | 28.33° C | - | 1011.9 hPa | 0 mm | 4.47 m/s, 283° | - | - |
| 1778014592 | 28.89° C | - | 1011.9 hPa | 0 mm | 4.92 m/s, 274° | - | - |
| 1778014003 | 28.33° C | - | 1011.9 hPa | 0 mm | 5.36 m/s, 246° | - | - |
| 1778012789 | 29.44° C | - | 1012.1 hPa | 0 mm | 5.81 m/s, 280° | - | - |
| 1778011589 | 29.44° C | - | 1012.2 hPa | 0 mm | 5.36 m/s, 293° | - | - |
| 1778011204 | 29.44° C | - | 1012.2 hPa | 0 mm | 4.92 m/s, 285° | - | - |
| 1778010988 | 28.33° C | - | 1012.3 hPa | 0 mm | 5.81 m/s, 262° | - | - |
| 1778010388 | 29.44° C | - | 1012.2 hPa | 0 mm | 4.92 m/s, 285° | - | - |
| 1778009788 | 30° C | - | 1012.1 hPa | 0 mm | 4.92 m/s, 280° | - | - |
| 1778009187 | 28.89° C | - | 1012.1 hPa | 0 mm | 5.36 m/s, 249° | - | - |
| 1778008587 | 30° C | - | 1012.2 hPa | 0 mm | 4.02 m/s, 269° | - | - |
| 1778007987 | 29.44° C | - | 1012.1 hPa | 0 mm | 4.02 m/s, 242° | - | - |
| 1778007387 | 30° C | - | 1012.2 hPa | 0 mm | 4.92 m/s, 235° | - | - |
| 1778006786 | 30° C | - | 1012.4 hPa | 0 mm | 3.13 m/s, 249° | - | - |
* Rain since midnight (hover to see other rain measurements)
** Current wind speed in m/s (hover to see current wind gust speed)